• Join FlightAware (Why Join?)
  • Login
  • US Flag 
02:16PM EDT


 

Airport Tracker/Info


-or-


 

Live Flight TrackerFlight Track Log ✈ DAL1084 ✈ 24-Jun-2013 ✈ PANC - KMSP

Flight Track Log - Related Links

Times and Time Zones

All times are in EDT time to prevent confusion due to time zone crossing. See the DAL1084 flight status page for this flight to view local times or setup timezone preferences in your user account.

Time Position Orientation Groundspeed Altitude Reporting Facility
EDT Latitude Longitude Course Direction KTS MPH feet Rate Location/Type
09:59AM 61.1720 -149.2366 109° East  Level Estimated
10:00AM 61.1704 -148.9828 101° East  Level Estimated
10:00AM 61.0667 -150.2167 103° East 270 311 8,200  Level Anchorage Center
10:01AM 61.1683 -148.7290 99° East  Level Estimated
10:01AM 61.0167 -150.1000 131° Southeast 270 311 10,400  Level Anchorage Center
10:02AM 61.0759 -148.5627 139° Southeast  Level FlightAware Approximate
10:02AM 60.9833 -149.9500 115° Southeast 300 345 12,400  Level Anchorage Center
10:03AM 60.9832 -148.3974 139° Southeast  Level FlightAware Approximate
10:03AM 60.9500 -149.7833 112° Southeast 320 368 14,400  Level Anchorage Center
10:04AM 60.9806 -148.1452 101° East  Level Estimated
10:04AM 60.9333 -149.5833 100° East 320 368 16,700  Level Anchorage Center
10:05AM 60.9774 -147.8929 103° East  Level Estimated
10:05AM 60.9333 -149.4000 90° East 340 391 18,700  Level Anchorage Center
10:07AM 60.9167 -148.9833 95° East 370 426 22,500 1,620 Climbing Anchorage Center
10:08AM 60.9000 -148.7833 100° East 370 426 23,700 1,200 Climbing Anchorage Center
10:09AM 60.9000 -148.5500 90° East 390 449 24,900 1,320 Climbing Anchorage Center
10:10AM 60.8833 -148.3333 99° East 400 460 26,400 1,380 Climbing Anchorage Center
10:11AM 60.8833 -148.1000 90° East 390 449 27,700 1,140 Climbing Anchorage Center
10:12AM 60.8667 -147.8667 98° East 410 472 28,700 1,020 Climbing Anchorage Center
10:13AM 60.8500 -147.5833 97° East 430 495 29,800 1,020 Climbing Anchorage Center
10:14AM 60.8333 -147.3500 98° East 420 483 30,800 840 Climbing Anchorage Center
10:15AM 60.8167 -147.1333 99° East 430 495 31,500 720 Climbing Anchorage Center
10:16AM 60.8167 -146.8833 90° East 430 495 32,300 660 Climbing Anchorage Center
10:17AM 60.8000 -146.6333 98° East 440 506 32,900 840 Climbing Anchorage Center
10:18AM 60.7833 -146.3833 98° East 440 506 34,000 1,140 Climbing Anchorage Center
10:19AM 60.7667 -146.1333 98° East 430 495 35,200 900 Climbing Anchorage Center
10:20AM 60.7500 -145.9000 98° East 430 495 35,900 600 Climbing Anchorage Center
10:21AM 60.7333 -145.6500 98° East 430 495 36,500 540 Climbing Anchorage Center
10:22AM 60.7167 -145.4000 98° East 430 495 37,000 240 Climbing Anchorage Center
10:23AM 60.7000 -145.1667 98° East 420 483 37,000  Level Anchorage Center
10:24AM 60.6833 -144.9167 98° East 430 495 37,000  Level Anchorage Center
10:25AM 60.6667 -144.6833 98° East 430 495 37,000  Level Anchorage Center
10:26AM 60.6333 -144.4333 105° East 430 495 37,000  Level Anchorage Center
10:27AM 60.6167 -144.1833 98° East 430 495 37,000  Level Anchorage Center
10:28AM 60.6000 -143.9500 98° East 430 495 37,000  Level Anchorage Center
10:29AM 60.5833 -143.7000 98° East 430 495 37,000  Level Anchorage Center
10:30AM 60.5667 -143.4667 98° East 430 495 37,000  Level Anchorage Center
10:31AM 60.5500 -143.2167 98° East 440 506 37,000  Level Anchorage Center
10:32AM 60.5167 -142.9667 105° East 430 495 37,000  Level Anchorage Center
10:33AM 60.5000 -142.7000 97° East 430 495 37,000  Level Anchorage Center
10:34AM 60.4667 -142.4500 105° East 440 506 37,000  Level Anchorage Center
10:35AM 60.4500 -142.2000 98° East 440 506 37,000  Level Anchorage Center
10:36AM 60.4333 -141.9667 98° East 440 506 37,000  Level Anchorage Center
10:37AM 60.4000 -141.7167 105° East 440 506 37,000  Level Anchorage Center
10:38AM 60.3833 -141.4667 98° East 440 506 37,000  Level Anchorage Center
10:39AM 60.3500 -141.2333 106° East 440 506 37,000  Level Anchorage Center
10:40AM 60.3333 -140.9833 98° East 440 506 37,000  Level Anchorage Center
10:41AM 60.3000 -140.7333 105° East 440 506 37,000  Level Anchorage Center
10:42AM 60.2833 -140.4833 98° East 440 506 37,000  Level Anchorage Center
10:43AM 60.2500 -140.2500 106° East 440 506 37,000  Level Anchorage Center
10:44AM 60.2167 -140.0000 105° East 440 506 37,000  Level Anchorage Center
10:45AM 60.2000 -139.7667 98° East 440 506 37,000  Level Anchorage Center
10:46AM 60.1667 -139.5167 105° East 440 506 37,000  Level Anchorage Center
10:47AM 60.1333 -139.2833 106° East 440 506 37,000  Level Anchorage Center
10:48AM 60.1000 -139.0500 106° East 440 506 37,000  Level Anchorage Center
10:49AM 60.0833 -138.8000 98° East 440 506 37,000  Level Anchorage Center
10:51AM 60.0388 -138.4064 103° East  Level FlightAware Approximate
10:58AM 59.8369 -136.7488 103° East  Level FlightAware Approximate
10:59AM 59.8063 -136.5137 104° East  Level FlightAware Approximate
11:00AM 59.7754 -136.2790 105° East  Level FlightAware Approximate
11:01AM 59.7440 -136.0447 105° East  Level FlightAware Approximate
11:02AM 59.7122 -135.8109 105° East  Level FlightAware Approximate
11:03AM 59.6800 -135.5776 105° East  Level FlightAware Approximate
11:04AM 59.6474 -135.3447 105° East  Level FlightAware Approximate
11:05AM 59.6144 -135.1122 106° East  Level FlightAware Approximate
11:06AM 59.5810 -134.8802 106° East  Level FlightAware Approximate
11:07AM 59.5471 -134.6487 106° East  Level FlightAware Approximate
11:08AM 59.5129 -134.4176 106° East  Level FlightAware Approximate
11:09AM 59.4782 -134.1870 106° East  Level FlightAware Approximate
11:10AM 59.4431 -133.9569 107° East  Level FlightAware Approximate
11:11AM 59.4076 -133.7272 107° East  Level FlightAware Approximate
11:12AM 59.3718 -133.4981 107° East  Level FlightAware Approximate
11:13AM 59.3355 -133.2694 107° East  Level FlightAware Approximate
11:14AM 59.2988 -133.0412 107° East  Level FlightAware Approximate
11:15AM 59.2618 -132.8135 108° East  Level FlightAware Approximate
11:16AM 59.2243 -132.5863 108° East  Level FlightAware Approximate
11:17AM 59.1864 -132.3596 108° East  Level FlightAware Approximate
11:18AM 59.1482 -132.1335 108° East  Level FlightAware Approximate
11:19AM 59.1095 -131.9078 108° East  Level FlightAware Approximate
11:20AM 59.0705 -131.6826 109° East  Level FlightAware Approximate
11:21AM 59.0311 -131.4580 109° East  Level FlightAware Approximate
11:22AM 58.9912 -131.2338 109° East  Level FlightAware Approximate
11:23AM 58.9510 -131.0102 109° East  Level FlightAware Approximate
11:24AM 58.9104 -130.7871 109° East  Level FlightAware Approximate
11:25AM 58.8695 -130.5646 110° East  Level FlightAware Approximate
11:26AM 58.8281 -130.3425 110° East  Level FlightAware Approximate
11:27AM 58.7864 -130.1210 110° East  Level FlightAware Approximate
11:28AM 58.7443 -129.9001 110° East  Level FlightAware Approximate
11:29AM 58.7018 -129.6796 110° East  Level FlightAware Approximate
11:30AM 58.6589 -129.4597 110° East  Level FlightAware Approximate
11:31AM 58.6157 -129.2404 111° Southeast  Level FlightAware Approximate
11:32AM 58.5721 -129.0216 111° Southeast  Level FlightAware Approximate
11:33AM 58.5281 -128.8033 111° Southeast  Level FlightAware Approximate
11:34AM 58.4838 -128.5856 111° Southeast  Level FlightAware Approximate
11:35AM 58.4390 -128.3684 111° Southeast  Level FlightAware Approximate
11:36AM 58.3940 -128.1518 112° Southeast  Level FlightAware Approximate
11:37AM 58.3485 -127.9358 112° Southeast  Level FlightAware Approximate
11:38AM 58.3027 -127.7203 112° Southeast  Level FlightAware Approximate
11:39AM 58.2565 -127.5054 112° Southeast  Level FlightAware Approximate
11:40AM 58.2100 -127.2910 112° Southeast  Level FlightAware Approximate
11:41AM 58.1631 -127.0772 112° Southeast  Level FlightAware Approximate
11:42AM 58.1159 -126.8639 113° Southeast  Level FlightAware Approximate
11:43AM 58.0683 -126.6513 113° Southeast  Level FlightAware Approximate
11:44AM 58.0203 -126.4391 113° Southeast  Level FlightAware Approximate
11:45AM 57.9722 -126.2274 113° Southeast  Level FlightAware Approximate
11:46AM 57.9238 -126.0162 113° Southeast  Level FlightAware Approximate
11:47AM 57.8751 -125.8055 113° Southeast  Level FlightAware Approximate
11:48AM 57.8261 -125.5955 114° Southeast  Level FlightAware Approximate
11:49AM 57.7767 -125.3859 114° Southeast  Level FlightAware Approximate
11:50AM 57.7269 -125.1770 114° Southeast  Level FlightAware Approximate
11:50AM 57.7167 -125.3000 115° Southeast 440 506 37,000  Level Edmonton Center
11:51AM 57.6768 -124.9687 114° Southeast  Level FlightAware Approximate
11:51AM 57.6667 -125.0667 112° Southeast 440 506 37,000  Level Edmonton Center
11:52AM 57.6264 -124.7609 114° Southeast  Level FlightAware Approximate
11:52AM 57.6167 -124.8333 112° Southeast 440 506 37,000  Level Edmonton Center
11:53AM 57.5757 -124.5537 114° Southeast  Level FlightAware Approximate
11:53AM 57.5833 -124.6500 109° East 440 506 37,000  Level Edmonton Center
11:54AM 57.5246 -124.3471 115° Southeast  Level FlightAware Approximate
11:54AM 57.5333 -124.4500 115° Southeast 430 495 37,000  Level Edmonton Center
11:55AM 57.4731 -124.1410 115° Southeast  Level FlightAware Approximate
11:55AM 57.4667 -124.2333 120° Southeast 430 495 37,000  Level Edmonton Center
11:56AM 57.4167 -124.0333 115° Southeast 430 495 37,000  Level Edmonton Center
11:57AM 57.3833 -123.8500 109° East 440 506 37,000  Level Edmonton Center
11:58AM 57.3167 -123.6333 120° Southeast 430 495 37,000  Level Edmonton Center
11:59AM 57.2667 -123.4333 115° Southeast 440 506 37,000  Level Edmonton Center
12:00PM 57.2167 -123.2167 113° Southeast 440 506 37,000  Level Edmonton Center
12:01PM 57.1500 -123.0167 122° Southeast 430 495 37,000  Level Edmonton Center
12:02PM 57.1167 -122.8333 108° East 430 495 37,000  Level Edmonton Center
12:03PM 57.0500 -122.6167 119° Southeast 430 495 37,000  Level Edmonton Center
12:04PM 57.0000 -122.4333 117° Southeast 430 495 37,000  Level Edmonton Center
12:05PM 56.9333 -122.2167 119° Southeast 430 495 37,000  Level Edmonton Center
12:06PM 56.9000 -122.0333 108° East 440 506 37,000  Level Edmonton Center
12:07PM 56.8333 -121.8167 119° Southeast 430 495 37,000  Level Edmonton Center
12:08PM 56.7833 -121.6333 116° Southeast 430 495 37,000  Level Edmonton Center
12:09PM 56.7167 -121.4167 119° Southeast 430 495 37,000  Level Edmonton Center
12:10PM 56.6667 -121.2167 114° Southeast 430 495 37,000  Level Edmonton Center
12:11PM 56.6167 -121.0500 119° Southeast 430 495 37,000  Level Edmonton Center
12:12PM 56.5500 -120.8333 119° Southeast 430 495 37,000  Level Edmonton Center
12:13PM 56.5000 -120.6500 116° Southeast 440 506 37,000  Level Edmonton Center
12:14PM 56.4333 -120.4333 119° Southeast 440 506 37,000  Level Edmonton Center
12:15PM 56.3667 -120.2500 123° Southeast 440 506 37,000  Level Edmonton Center
12:16PM 56.3167 -120.0333 113° Southeast 440 506 37,000  Level Edmonton Center
12:17PM 56.2667 -119.8667 118° Southeast 440 506 37,000  Level Edmonton Center
12:18PM 56.2000 -119.6500 119° Southeast 440 506 37,000  Level Edmonton Center
12:19PM 56.1333 -119.4667 123° Southeast 440 506 37,000  Level Edmonton Center
12:20PM 56.0833 -119.2667 114° Southeast 440 506 37,000  Level Edmonton Center
12:21PM 56.0167 -119.0500 119° Southeast 450 518 37,000  Level Edmonton Center
12:22PM 55.9500 -118.8833 125° Southeast 440 506 37,000  Level Edmonton Center
12:23PM 55.8833 -118.6667 119° Southeast 440 506 37,000  Level Edmonton Center
12:24PM 55.8500 -118.5000 110° East 440 506 37,000  Level Edmonton Center
12:25PM 55.7667 -118.2833 124° Southeast 440 506 37,000  Level Edmonton Center
12:26PM 55.7167 -118.1167 118° Southeast 440 506 37,000  Level Edmonton Center
12:27PM 55.6500 -117.9167 121° Southeast 450 518 37,000  Level Edmonton Center
12:28PM 55.5833 -117.7000 118° Southeast 450 518 37,000  Level Edmonton Center
12:29PM 55.5167 -117.5333 125° Southeast 450 518 37,000  Level Edmonton Center
12:30PM 55.4500 -117.3333 120° Southeast 450 518 37,000  Level Edmonton Center
12:31PM 55.3833 -117.1500 123° Southeast 450 518 37,000  Level Edmonton Center
12:32PM 55.3167 -116.9500 120° Southeast 440 506 37,000  Level Edmonton Center
12:33PM 55.2667 -116.7833 118° Southeast 440 506 37,000  Level Edmonton Center
12:34PM 55.2000 -116.5833 120° Southeast 440 506 37,000  Level Edmonton Center
12:35PM 55.1333 -116.3833 120° Southeast 440 506 37,000  Level Edmonton Center
12:36PM 55.0667 -116.2167 125° Southeast 450 518 37,000  Level Edmonton Center
12:37PM 55.0000 -116.0167 120° Southeast 450 518 37,000  Level Edmonton Center
12:38PM 54.9333 -115.8500 125° Southeast 450 518 37,000  Level Edmonton Center
12:39PM 54.8667 -115.6500 120° Southeast 450 518 37,000  Level Edmonton Center
12:40PM 54.8000 -115.4500 120° Southeast 450 518 37,000  Level Edmonton Center
12:41PM 54.7333 -115.2500 120° Southeast 460 529 37,000  Level Edmonton Center
12:42PM 54.6500 -115.0833 131° Southeast 460 529 37,000  Level Edmonton Center
12:43PM 54.5833 -114.9000 122° Southeast 460 529 37,000  Level Edmonton Center
12:44PM 54.5167 -114.7000 120° Southeast 460 529 37,000  Level Edmonton Center
12:45PM 54.4500 -114.5167 122° Southeast 460 529 37,000  Level Edmonton Center
12:46PM 54.3833 -114.3167 120° Southeast 460 529 37,000  Level Edmonton Center
12:47PM 54.3167 -114.1500 124° Southeast 470 541 37,000  Level Edmonton Center
12:48PM 54.2167 -113.9333 128° Southeast 470 541 37,000  Level Edmonton Center
12:49PM 54.1667 -113.7667 117° Southeast 470 541 37,000  Level Edmonton Center
12:50PM 54.1000 -113.5833 122° Southeast 470 541 37,000  Level Edmonton Center
12:51PM 54.0167 -113.3833 125° Southeast 460 529 37,000  Level Edmonton Center
12:52PM 53.9333 -113.2000 128° Southeast 460 529 37,000  Level Edmonton Center
12:53PM 53.8667 -113.0167 122° Southeast 460 529 37,000  Level Edmonton Center
12:54PM 53.7833 -112.8500 130° Southeast 460 529 37,000  Level Edmonton Center
12:55PM 53.7333 -112.6667 115° Southeast 460 529 37,000  Level Edmonton Center
12:56PM 53.6500 -112.4833 127° Southeast 460 529 37,000  Level Edmonton Center
12:57PM 53.5667 -112.3000 127° Southeast 460 529 37,000  Level Edmonton Center
12:58PM 53.5000 -112.1167 121° Southeast 460 529 37,000  Level Edmonton Center
12:59PM 53.4167 -111.9500 130° Southeast 460 529 37,000  Level Edmonton Center
01:00PM 53.3500 -111.7667 121° Southeast 470 541 37,000  Level Edmonton Center
01:01PM 53.2833 -111.5833 121° Southeast 470 541 37,000  Level Edmonton Center
01:02PM 53.2000 -111.4000 127° Southeast 470 541 37,000  Level Edmonton Center
01:03PM 53.1333 -111.2333 124° Southeast 470 541 37,000  Level Edmonton Center
01:04PM 53.0500 -111.0500 127° Southeast 470 541 37,000  Level Edmonton Center
01:05PM 52.9667 -110.8667 127° Southeast 470 541 37,000  Level Edmonton Center
01:06PM 52.9000 -110.6833 121° Southeast 470 541 37,000  Level Edmonton Center
01:07PM 52.8333 -110.4833 119° Southeast 470 541 37,000  Level Edmonton Center
01:08PM 52.7667 -110.3000 121° Southeast 470 541 37,000  Level Edmonton Center
01:09PM 52.7000 -110.1333 123° Southeast 480 552 37,000  Level Edmonton Center
01:10PM 52.6333 -109.9167 117° Southeast 470 541 37,000  Level Edmonton Center
01:11PM 52.5500 -109.7167 124° Southeast 470 541 37,000  Level Edmonton Center
01:12PM 52.5000 -109.5500 116° Southeast 470 541 37,000  Level Edmonton Center
01:13PM 52.4167 -109.3500 124° Southeast 470 541 37,000  Level Edmonton Center
01:14PM 52.3500 -109.1667 121° Southeast 470 541 37,000  Level Edmonton Center
01:15PM 52.2833 -108.9667 119° Southeast 480 552 37,000  Level Edmonton Center
01:16PM 52.2167 -108.8000 123° Southeast 480 552 37,000  Level Edmonton Center
01:17PM 52.1333 -108.6000 124° Southeast 480 552 37,000  Level Edmonton Center
01:18PM 52.0833 -108.4333 116° Southeast 480 552 37,000  Level Edmonton Center
01:19PM 52.0000 -108.2333 124° Southeast 480 552 37,000  Level Edmonton Center
01:20PM 51.9333 -108.0333 118° Southeast 480 552 37,000  Level Edmonton Center
01:21PM 51.8667 -107.8667 123° Southeast 480 552 37,000  Level Edmonton Center
01:22PM 51.8000 -107.6667 118° Southeast 470 541 37,000  Level Edmonton Center
01:23PM 51.7167 -107.5000 129° Southeast 480 552 37,000  Level Edmonton Center
01:24PM 51.6500 -107.3000 118° Southeast 480 552 37,000  Level Edmonton Center
01:25PM 51.5667 -107.1333 129° Southeast 480 552 37,000  Level Edmonton Center
01:26PM 51.5000 -106.9500 120° Southeast 480 552 37,000  Level Edmonton Center
01:27PM 51.4333 -106.7833 123° Southeast 480 552 37,000  Level Edmonton Center
01:28PM 51.3667 -106.5833 118° Southeast 480 552 37,000  Level Edmonton Center
01:29PM 51.2833 -106.4000 126° Southeast 480 552 37,000  Level Edmonton Center
01:30PM 51.2167 -106.2333 123° Southeast 470 541 37,000  Level Edmonton Center
01:31PM 51.1333 -106.0333 124° Southeast 470 541 37,000  Level Edmonton Center
01:32PM 51.0667 -105.8833 125° Southeast 480 552 37,000  Level Edmonton Center
01:33PM 50.9833 -105.6833 123° Southeast 470 541 37,000  Level Edmonton Center
01:34PM 50.9167 -105.5333 125° Southeast 470 541 37,000  Level Edmonton Center
01:35PM 50.8333 -105.3500 126° Southeast 480 552 37,000  Level Winnipeg Center
01:36PM 50.7667 -105.1833 122° Southeast 480 552 37,000  Level Winnipeg Center
01:37PM 50.6833 -104.9833 123° Southeast 490 564 37,000  Level Winnipeg Center
01:38PM 50.6167 -104.8167 122° Southeast 490 564 37,000  Level Winnipeg Center
01:39PM 50.5333 -104.6333 126° Southeast 490 564 37,000  Level Winnipeg Center
01:40PM 50.4500 -104.4333 123° Southeast 490 564 37,000  Level Winnipeg Center
01:41PM 50.3833 -104.2667 122° Southeast 490 564 37,000  Level Winnipeg Center
01:42PM 50.3167 -104.1000 122° Southeast 480 552 37,000  Level Winnipeg Center
01:43PM 50.2333 -103.9333 128° Southeast 480 552 37,000  Level Winnipeg Center
01:44PM 50.1500 -103.7333 123° Southeast 480 552 37,000  Level Winnipeg Center
01:45PM 50.0833 -103.5667 122° Southeast 480 552 37,000  Level Winnipeg Center
01:46PM 50.0167 -103.4000 122° Southeast 480 552 37,000  Level Winnipeg Center
01:47PM 49.9333 -103.2333 128° Southeast 480 552 37,000  Level Winnipeg Center
01:48PM 49.8500 -103.0667 128° Southeast 480 552 37,000  Level Winnipeg Center
01:49PM 49.7833 -102.9000 122° Southeast 480 552 37,000  Level Winnipeg Center
01:50PM 49.7000 -102.7333 128° Southeast 480 552 37,000  Level Winnipeg Center
01:51PM 49.6333 -102.5500 119° Southeast 470 541 37,000  Level Winnipeg Center
01:52PM 49.5500 -102.3833 128° Southeast 470 541 37,000  Level Winnipeg Center
01:53PM 49.4833 -102.2167 122° Southeast 470 541 37,000  Level Winnipeg Center
01:54PM 49.4000 -102.0500 127° Southeast 470 541 37,000  Level Winnipeg Center
01:56PM 49.2247 -101.6450 123° Southeast 474 545 37,000  Level Minneapolis Center
01:57PM 49.1481 -101.4844 126° Southeast 472 543 37,000  Level Minneapolis Center
01:58PM 49.0711 -101.3239 126° Southeast 469 540 37,000  Level Minneapolis Center
01:59PM 48.9939 -101.1619 126° Southeast 472 543 37,000  Level Minneapolis Center
02:00PM 48.9150 -100.9992 126° Southeast 476 548 37,000  Level Minneapolis Center
02:01PM 48.8525 -100.8703 126° Southeast 477 549 37,000  Level Minneapolis Center
02:03PM 48.7433 -100.6469 126° Southeast 473 544 37,000  Level Minneapolis Center
02:04PM 48.6664 -100.4878 126° Southeast 470 541 37,000  Level Minneapolis Center
02:05PM 48.5864 -100.3283 127° Southeast 474 545 37,000  Level Minneapolis Center
02:06PM 48.4908 -100.1364 127° Southeast 477 549 37,000  Level Minneapolis Center
02:07PM 48.4122 -99.9789 127° Southeast 474 545 37,000  Level Minneapolis Center
02:08PM 48.3175 -99.7919 127° Southeast 470 541 37,000  Level Minneapolis Center
02:09PM 48.2406 -99.6378 127° Southeast 466 536 37,000  Level Minneapolis Center
02:10PM 48.1633 -99.4844 127° Southeast 463 533 37,000  Level Minneapolis Center
02:11PM 48.0894 -99.3283 125° Southeast 463 533 37,000  Level Minneapolis Center
02:12PM 48.0100 -99.1775 128° Southeast 464 534 37,000  Level Minneapolis Center
02:13PM 47.9325 -99.0289 128° Southeast 460 529 37,000  Level Minneapolis Center
02:14PM 47.8239 -98.8208 128° Southeast 456 525 37,000  Level Minneapolis Center
02:15PM 47.7458 -98.6728 128° Southeast 456 525 37,000  Level Minneapolis Center
02:16PM 47.6675 -98.5239 128° Southeast 459 528 37,000  Level Minneapolis Center
02:17PM 47.5900 -98.3786 128° Southeast 456 525 37,000  Level Minneapolis Center
02:18PM 47.5117 -98.2336 129° Southeast 456 525 37,000  Level Minneapolis Center
02:19PM 47.4181 -98.0594 128° Southeast 460 529 37,000  Level Minneapolis Center
02:20PM 47.3408 -97.9147 128° Southeast 461 531 37,000  Level Minneapolis Center
02:22PM 47.2631 -97.7719 129° Southeast 456 525 37,000  Level Minneapolis Center
02:23PM 47.1856 -97.6289 129° Southeast 452 520 37,000  Level Minneapolis Center
02:24PM 47.1067 -97.4844 129° Southeast 455 524 37,000  Level Minneapolis Center
02:25PM 47.0108 -97.3108 129° Southeast 458 527 37,000  Level Minneapolis Center
02:26PM 46.9319 -97.1700 129° Southeast 452 520 37,000  Level Minneapolis Center
02:27PM 46.8517 -97.0253 129° Southeast 457 526 37,000  Level Minneapolis Center
02:28PM 46.7711 -96.8817 129° Southeast 460 529 37,000  Level Minneapolis Center
02:29PM 46.7003 -96.6747 116° Southeast 482 555 37,000 -540 Level Minneapolis Center
02:30PM 46.6364 -96.4619 114° Southeast 480 552 35,900 -1,260 Descending Minneapolis Center
02:31PM 46.5831 -96.2872 114° Southeast 476 548 34,500 -1,920 Descending Minneapolis Center
02:32PM 46.5294 -96.1075 113° Southeast 484 557 32,000 -2,400 Descending Minneapolis Center
02:33PM 46.4728 -95.9258 114° Southeast 495 570 29,600 -2,100 Descending Minneapolis Center
02:34PM 46.4100 -95.7228 114° Southeast 490 564 27,700 -1,260 Descending Minneapolis Center
02:35PM 46.3544 -95.5461 114° Southeast 485 558 27,000 -540 Descending Minneapolis Center
02:36PM 46.3022 -95.3878 115° Southeast 477 549 26,700 -600 Descending Minneapolis Center
02:37PM 46.2508 -95.2589 120° Southeast 468 539 25,800 -1,260 Descending Minneapolis Center
02:38PM 46.1597 -95.0419 121° Southeast 455 524 24,100 -900 Descending Minneapolis Center
02:39PM 46.1181 -94.9425 121° Southeast 449 517 24,000 -60 Descending Minneapolis Center
02:40PM 46.0283 -94.7286 121° Southeast 448 516 24,000  Level Minneapolis Center
02:41PM 45.9650 -94.5781 121° Southeast 445 512 24,000 -600 Level Minneapolis Center
02:42PM 45.9042 -94.4339 121° Southeast 431 496 22,800 -1,620 Descending Minneapolis Center
02:43PM 45.8444 -94.2942 121° Southeast 419 482 20,700 -1,980 Descending Minneapolis Center
02:44PM 45.7856 -94.1594 122° Southeast 405 466 18,700 -2,100 Descending Minneapolis Center
02:46PM 45.7181 -94.0006 121° Southeast 393 452 16,400 -2,040 Descending Minneapolis Center
02:47PM 45.6611 -93.8686 122° Southeast 391 450 14,500 -1,500 Descending Minneapolis Center
02:48PM 45.6031 -93.7361 122° Southeast 394 453 13,000 -1,500 Descending Minneapolis Center
02:49PM 45.5314 -93.5861 124° Southeast 385 443 11,100 -1,500 Descending Minneapolis Center
02:50PM 45.4489 -93.5325 155° Southeast 317 365 10,000 -1,440 Descending Minneapolis Center
02:51PM 45.3639 -93.4892 160° South 269 310 8,200 -1,440 Descending Minneapolis Center
02:52PM 45.3067 -93.4989 187° South 231 266 7,100 -600 Descending Minneapolis Center
02:53PM 45.2633 -93.5639 227° Southwest 226 260 7,000 -120 Descending Minneapolis Center
02:54PM 45.2192 -93.6256 225° Southwest 226 260 6,900 -600 Descending Minneapolis Center
02:55PM 45.1700 -93.6733 214° Southwest 224 258 5,800 -840 Descending Minneapolis Center
02:56PM 45.1133 -93.6953 195° South 211 243 5,200 -540 Descending Minneapolis Center
02:57PM 45.0644 -93.6794 167° South 178 205 4,800 -600 Descending Minneapolis Center
02:58PM 45.0569 -93.6100 99° East 177 204 4,000 -420 Descending Minneapolis Center
02:59PM 45.0353 -93.5494 117° Southeast 173 199 4,000  Level Minneapolis Center
03:00PM 45.0100 -93.4914 122° Southeast 173 199 4,000  Level Minneapolis Center
03:01PM 44.9844 -93.4328 122° Southeast 176 203 4,000  Level Minneapolis Center